createdAt,value
2023-03-23T16:18:14.392Z,15.90
2023-03-23T16:20:42.224Z,15.80
2023-03-23T16:23:10.187Z,15.40
2023-03-23T16:25:41.448Z,15.10
2023-03-23T16:28:12.996Z,14.80
2023-03-23T16:30:41.697Z,14.70
2023-03-23T16:33:11.562Z,14.60
2023-03-23T16:35:40.428Z,14.50
2023-03-23T16:38:11.637Z,14.50
2023-03-23T16:40:39.549Z,14.50
2023-03-23T16:43:08.254Z,14.50
2023-03-23T16:45:36.740Z,14.50
2023-03-23T16:48:05.434Z,14.40
2023-03-23T17:31:05.909Z,13.60
2023-03-23T17:33:34.654Z,13.50
2023-03-23T17:36:02.527Z,13.50
2023-03-23T17:38:32.159Z,13.40
2023-03-23T17:41:01.539Z,13.40
2023-03-23T17:43:29.378Z,13.40
2023-03-23T17:45:57.255Z,13.30
2023-03-23T17:48:28.674Z,13.30
2023-03-23T17:51:00.251Z,13.20
2023-03-23T17:53:28.348Z,13.20
2023-03-23T17:55:56.908Z,13.10
2023-03-23T17:58:26.432Z,13.10
2023-03-23T18:00:57.495Z,13.20
2023-03-23T18:03:27.106Z,13.10
2023-03-23T18:05:59.904Z,13.10
2023-03-23T18:08:28.007Z,13.00
2023-03-23T18:10:56.817Z,12.90
2023-03-23T18:13:26.158Z,12.90
2023-03-23T18:15:57.710Z,12.90
2023-03-23T18:18:27.409Z,12.80
2023-03-23T18:20:56.801Z,12.80
2023-03-23T18:23:27.714Z,12.70
2023-03-23T18:25:56.062Z,12.70
2023-03-23T18:28:25.226Z,12.70
2023-03-23T18:30:53.332Z,12.70
2023-03-23T18:33:25.204Z,12.70
2023-03-23T18:35:59.765Z,12.60
2023-03-23T18:38:28.683Z,12.50
2023-03-23T18:41:00.316Z,12.60
2023-03-23T18:43:28.349Z,12.50
2023-03-23T18:45:58.195Z,12.40
2023-03-23T18:48:26.687Z,12.30
